Time;durP1;ratioP1;P1;durP2;ratioP2;P2;SDS_P1;SDS_P2;PMS_P1;PMS_P2;Temp;Humidity;BMP_temperature;BMP_pressure;BME280_temperature;BME280_humidity;BME280_pressure;Samples;Min_cycle;Max_cycle;Signal;HPM_P1;HPM_P2
2022/04/10 00:00:48;;;;;;;8.98;1.88;;;2.20;99.90;;;;;;4864737;29;20056;-73
2022/04/10 00:03:14;;;;;;;7.85;1.60;;;2.10;99.90;;;;;;4881974;29;20041;-70
2022/04/10 00:05:39;;;;;;;8.65;1.70;;;2.80;99.90;;;;;;4865315;29;20135;-73
2022/04/10 00:08:05;;;;;;;11.60;2.00;;;2.10;99.90;;;;;;4882025;29;20144;-73
2022/04/10 00:10:31;;;;;;;10.38;2.03;;;2.00;99.90;;;;;;4881919;29;20075;-73
2022/04/10 00:12:56;;;;;;;10.25;2.33;;;2.10;99.90;;;;;;4881733;29;20049;-72
2022/04/10 00:15:22;;;;;;;15.65;2.08;;;2.10;99.90;;;;;;4881527;29;20037;-72
2022/04/10 00:17:48;;;;;;;9.45;1.95;;;2.10;99.90;;;;;;4881895;29;20549;-73
2022/04/10 00:20:13;;;;;;;14.18;2.72;;;2.10;99.90;;;;;;4881521;29;20116;-73
2022/04/10 00:22:44;;;;;;;9.52;1.70;;;2.20;99.90;;;;;;4892471;29;20105;-73
2022/04/10 00:25:12;;;;;;;11.55;2.15;;;2.10;99.90;;;;;;4900022;29;20385;-73
2022/04/10 00:27:38;;;;;;;12.10;2.58;;;2.10;99.90;;;;;;4900408;29;20051;-72
2022/04/10 00:30:04;;;;;;;11.35;1.90;;;2.10;99.90;;;;;;4900550;29;20493;-72
2022/04/10 00:32:30;;;;;;;10.63;1.67;;;2.10;99.90;;;;;;4881792;29;20136;-72
2022/04/10 00:34:55;;;;;;;8.90;1.80;;;2.00;99.90;;;;;;4900284;29;20996;-72
2022/04/10 00:37:21;;;;;;;12.93;1.83;;;2.00;99.90;;;;;;4900397;29;20048;-72
2022/04/10 00:39:47;;;;;;;11.32;2.33;;;2.00;99.90;;;;;;4900266;29;20048;-73
2022/04/10 00:42:12;;;;;;;7.90;1.92;;;2.00;99.90;;;;;;4900146;29;20113;-74
2022/04/10 00:44:38;;;;;;;10.52;2.33;;;2.00;99.90;;;;;;4900295;29;20049;-73
2022/04/10 00:47:05;;;;;;;7.88;1.70;;;1.90;99.90;;;;;;4883318;29;20054;-74
2022/04/10 00:49:31;;;;;;;8.68;1.88;;;1.90;99.90;;;;;;4883164;29;20160;-73
2022/04/10 00:51:58;;;;;;;11.00;2.03;;;1.80;99.90;;;;;;4900015;29;20057;-73
2022/04/10 00:54:25;;;;;;;10.48;2.28;;;1.70;99.90;;;;;;4899918;29;20053;-73
2022/04/10 00:56:50;;;;;;;8.70;1.55;;;1.70;99.90;;;;;;4900029;29;20056;-72
2022/04/10 00:59:16;;;;;;;10.57;1.75;;;1.70;99.90;;;;;;4900137;29;20127;-73
2022/04/10 01:01:44;;;;;;;8.80;1.92;;;1.70;99.90;;;;;;4899812;29;20081;-73
2022/04/10 01:04:11;;;;;;;11.15;2.28;;;1.70;99.90;;;;;;4899242;29;20055;-73
2022/04/10 01:06:37;;;;;;;14.65;2.10;;;1.70;99.90;;;;;;4900188;29;20390;-73
2022/04/10 01:09:04;;;;;;;10.20;1.90;;;1.70;99.90;;;;;;4899993;29;20048;-73
2022/04/10 01:11:30;;;;;;;10.10;2.58;;;1.80;99.90;;;;;;4899671;29;20072;-72
2022/04/10 01:13:56;;;;;;;10.10;1.80;;;1.70;99.90;;;;;;4883301;29;20412;-73
2022/04/10 01:16:23;;;;;;;12.65;2.17;;;1.80;99.90;;;;;;4882551;29;20091;-74
2022/04/10 01:18:50;;;;;;;12.82;2.45;;;1.80;99.90;;;;;;4899405;29;20433;-73
2022/04/10 01:21:23;;;;;;;5.43;1.73;;;1.80;99.90;;;;;;4899165;29;20087;-73
2022/04/10 01:23:50;;;;;;;13.68;2.72;;;1.80;99.90;;;;;;4882593;29;20131;-74
2022/04/10 01:26:16;;;;;;;12.02;1.88;;;1.80;99.90;;;;;;4899111;29;20053;-73
2022/04/10 01:29:02;;;;;;;11.15;2.13;;;1.80;99.90;;;;;;4899614;29;20123;-73
2022/04/10 01:31:29;;;;;;;8.60;1.85;;;1.80;99.90;;;;;;4899022;29;20047;-73
2022/04/10 01:33:57;;;;;;;14.15;2.78;;;1.70;99.90;;;;;;4899278;29;20137;-73
2022/04/10 01:36:27;;;;;;;12.52;2.22;;;1.80;99.90;;;;;;4898620;29;20048;-72
2022/04/10 01:38:55;;;;;;;8.88;2.03;;;1.80;99.90;;;;;;4898815;29;20128;-73
2022/04/10 01:41:25;;;;;;;11.93;2.20;;;1.80;99.90;;;;;;4898907;29;20045;-71
2022/04/10 01:43:52;;;;;;;11.10;2.13;;;1.80;99.90;;;;;;4898587;29;20084;-73
2022/04/10 01:46:18;;;;;;;11.80;2.70;;;1.80;99.90;;;;;;4882112;29;20127;-71
2022/04/10 01:48:43;;;;;;;10.48;2.13;;;1.80;99.90;;;;;;4898927;29;20465;-74
2022/04/10 01:51:09;;;;;;;8.27;2.00;;;1.80;99.90;;;;;;4898309;29;20071;-73
2022/04/10 01:53:35;;;;;;;9.88;1.67;;;1.80;99.90;;;;;;4881910;29;20389;-73
2022/04/10 01:56:03;;;;;;;10.98;2.65;;;1.80;99.90;;;;;;4898968;29;20045;-73
2022/04/10 01:58:33;;;;;;;11.10;2.00;;;1.90;99.90;;;;;;4898771;29;20107;-73
2022/04/10 02:01:02;;;;;;;8.23;1.77;;;1.90;99.90;;;;;;4881744;29;20521;-74
2022/04/10 02:03:28;;;;;;;18.63;2.28;;;1.90;99.90;;;;;;4881757;29;20501;-73
2022/04/10 02:05:55;;;;;;;10.82;1.73;;;1.80;99.90;;;;;;4881458;29;20060;-73
2022/04/10 02:08:21;;;;;;;8.50;1.60;;;1.90;99.90;;;;;;4880767;29;20144;-73
2022/04/10 02:10:47;;;;;;;7.78;1.92;;;1.80;99.90;;;;;;4865589;29;20537;-73
2022/04/10 02:13:12;;;;;;;17.70;2.20;;;1.80;99.90;;;;;;4881894;29;20040;-73
2022/04/10 02:15:38;;;;;;;10.10;2.00;;;1.80;99.90;;;;;;4881940;29;20056;-73
2022/04/10 02:18:05;;;;;;;12.70;1.95;;;1.80;99.90;;;;;;4898585;29;20407;-74
2022/04/10 02:20:31;;;;;;;13.55;2.20;;;1.80;99.90;;;;;;4881720;29;20132;-73
2022/04/10 02:22:57;;;;;;;12.75;2.03;;;1.80;99.90;;;;;;4897823;29;20506;-71
2022/04/10 02:25:23;;;;;;;12.93;2.20;;;1.80;99.90;;;;;;4897518;29;20109;-73
2022/04/10 02:27:48;;;;;;;11.27;2.28;;;2.30;99.90;;;;;;4881288;29;20068;-73
2022/04/10 02:30:14;;;;;;;11.38;1.80;;;1.80;99.90;;;;;;4898232;29;20455;-74
2022/04/10 02:32:40;;;;;;;15.35;2.53;;;1.70;99.90;;;;;;4898143;29;20052;-73
2022/04/10 02:35:08;;;;;;;7.28;1.67;;;1.70;99.90;;;;;;4898187;29;20059;-73
2022/04/10 02:37:35;;;;;;;8.45;1.45;;;1.70;99.90;;;;;;4881449;29;20032;-73
2022/04/10 02:40:01;;;;;;;10.45;1.80;;;1.80;99.90;;;;;;4880979;29;20413;-73
2022/04/10 02:42:27;;;;;;;8.38;2.28;;;1.80;99.90;;;;;;4898014;29;20056;-73
2022/04/10 02:44:54;;;;;;;9.80;2.28;;;1.70;99.90;;;;;;4897917;29;20055;-71
2022/04/10 02:47:20;;;;;;;8.73;1.60;;;1.70;99.90;;;;;;4897778;29;20048;-73
2022/04/10 02:49:46;;;;;;;12.65;2.42;;;1.70;99.90;;;;;;4897906;29;20044;-73
2022/04/10 02:52:12;;;;;;;15.18;2.40;;;1.60;99.90;;;;;;4880910;29;20471;-73
2022/04/10 02:54:38;;;;;;;14.38;1.90;;;1.60;99.90;;;;;;4897234;29;20056;-73
2022/04/10 02:57:04;;;;;;;18.17;3.22;;;1.60;99.90;;;;;;4897532;29;20420;-72
2022/04/10 02:59:29;;;;;;;7.32;1.88;;;1.60;99.90;;;;;;4880783;29;20045;-71
2022/04/10 03:01:55;;;;;;;7.93;1.83;;;1.70;99.90;;;;;;4880632;29;20060;-72
2022/04/10 03:04:20;;;;;;;8.68;2.80;;;1.70;99.90;;;;;;4880742;29;20049;-72
2022/04/10 03:06:46;;;;;;;7.28;2.05;;;1.80;99.90;;;;;;4897712;29;20409;-72
2022/04/10 03:09:12;;;;;;;13.18;2.22;;;1.90;99.90;;;;;;4897504;29;20084;-73
2022/04/10 03:11:37;;;;;;;9.05;1.70;;;2.60;99.90;;;;;;4880156;29;20083;-73
2022/04/10 03:14:03;;;;;;;6.57;1.55;;;2.00;99.90;;;;;;4897701;29;20049;-73
2022/04/10 03:16:29;;;;;;;9.27;1.83;;;2.00;99.90;;;;;;4880829;29;20465;-73
2022/04/10 03:18:54;;;;;;;7.70;1.92;;;2.00;99.90;;;;;;4897553;29;20084;-71
2022/04/10 03:21:20;;;;;;;5.07;1.42;;;1.90;99.90;;;;;;4897451;29;20504;-71
2022/04/10 03:23:46;;;;;;;10.52;2.95;;;1.90;99.90;;;;;;4897158;29;20041;-72
2022/04/10 03:26:12;;;;;;;10.07;2.15;;;1.90;99.90;;;;;;4880213;29;20143;-72
2022/04/10 03:28:37;;;;;;;11.38;1.98;;;1.80;99.90;;;;;;4896785;29;20060;-72
2022/04/10 03:31:03;;;;;;;7.00;1.23;;;1.70;99.90;;;;;;4864797;29;20056;-72
2022/04/10 03:33:29;;;;;;;8.60;1.40;;;1.70;99.90;;;;;;4880689;29;20107;-73
2022/04/10 03:35:55;;;;;;;9.93;2.00;;;1.70;99.90;;;;;;4880544;29;20088;-74
2022/04/10 03:38:21;;;;;;;12.57;1.70;;;1.70;99.90;;;;;;4880526;29;20126;-72
2022/04/10 03:40:47;;;;;;;7.13;1.60;;;1.70;99.90;;;;;;4897175;29;20068;-73
2022/04/10 03:43:13;;;;;;;9.70;2.47;;;1.80;99.90;;;;;;4880226;29;20224;-72
2022/04/10 03:45:39;;;;;;;8.25;2.05;;;1.80;99.90;;;;;;4879998;29;20045;-72
2022/04/10 03:48:06;;;;;;;10.05;1.88;;;1.80;99.90;;;;;;4897265;29;20055;-73
2022/04/10 03:50:33;;;;;;;10.15;1.77;;;1.80;99.90;;;;;;4897421;29;20128;-72
2022/04/10 03:53:00;;;;;;;7.35;1.58;;;1.80;99.90;;;;;;4897001;29;20528;-72
2022/04/10 03:55:26;;;;;;;7.60;1.75;;;1.80;99.90;;;;;;4880428;29;20128;-73
2022/04/10 03:57:51;;;;;;;7.28;1.70;;;1.90;99.90;;;;;;4880424;29;20124;-71
2022/04/10 04:00:18;;;;;;;9.05;2.08;;;1.90;99.90;;;;;;4896713;29;20489;-72
2022/04/10 04:02:45;;;;;;;8.07;1.40;;;1.90;99.90;;;;;;4880181;29;20563;-73
2022/04/10 04:05:10;;;;;;;9.02;1.83;;;1.90;99.90;;;;;;4897052;29;20124;-72
2022/04/10 04:07:36;;;;;;;22.77;2.80;;;1.90;99.90;;;;;;4883173;29;20553;-71
2022/04/10 04:10:03;;;;;;;9.23;2.55;;;2.00;99.90;;;;;;4883771;29;20136;-73
2022/04/10 04:12:29;;;;;;;7.40;1.30;;;2.00;99.90;;;;;;4900603;29;20048;-73
2022/04/10 04:14:55;;;;;;;3.78;1.15;;;2.00;99.90;;;;;;4883431;29;20096;-73
2022/04/10 04:17:20;;;;;;;8.65;1.80;;;2.00;99.90;;;;;;4899988;29;20429;-73
2022/04/10 04:19:49;;;;;;;7.78;2.05;;;2.00;99.90;;;;;;4883401;29;20060;-72
2022/04/10 04:22:16;;;;;;;13.50;3.90;;;2.00;99.90;;;;;;4900259;29;20084;-73
2022/04/10 04:24:41;;;;;;;11.88;3.65;;;2.10;99.90;;;;;;4882854;29;20061;-72
2022/04/10 04:27:07;;;;;;;8.18;3.15;;;2.10;99.90;;;;;;4900460;29;20108;-73
2022/04/10 04:29:33;;;;;;;8.18;2.28;;;2.20;99.90;;;;;;4883723;29;20072;-72
2022/04/10 04:31:59;;;;;;;7.72;1.70;;;2.20;99.90;;;;;;4899796;29;20462;-73
2022/04/10 04:34:25;;;;;;;10.18;1.80;;;2.20;99.90;;;;;;4899948;29;20059;-73
2022/04/10 04:36:50;;;;;;;8.35;1.67;;;2.20;99.90;;;;;;4883279;29;20379;-73
2022/04/10 04:39:16;;;;;;;8.30;1.48;;;2.30;99.90;;;;;;4883085;29;20052;-73
2022/04/10 04:41:42;;;;;;;6.63;1.30;;;2.30;99.90;;;;;;4867380;29;20152;-74
2022/04/10 04:44:07;;;;;;;5.72;1.20;;;2.20;99.90;;;;;;4900356;29;20043;-73
2022/04/10 04:46:33;;;;;;;3.42;0.98;;;2.20;99.90;;;;;;4883185;29;20049;-74
2022/04/10 04:48:59;;;;;;;3.92;0.90;;;2.10;99.90;;;;;;4882806;29;20393;-74
2022/04/10 04:51:24;;;;;;;3.67;0.93;;;2.20;99.90;;;;;;4899974;29;20059;-72
2022/04/10 04:53:50;;;;;;;4.30;0.80;;;2.20;99.90;;;;;;4883144;29;20515;-73
2022/04/10 04:56:16;;;;;;;6.05;1.45;;;2.30;99.90;;;;;;4899698;29;20374;-72
2022/04/10 04:58:42;;;;;;;6.55;0.82;;;2.30;99.90;;;;;;4899867;29;20084;-70
2022/04/10 05:01:08;;;;;;;6.70;0.90;;;2.40;99.90;;;;;;4899823;29;20036;-72
2022/04/10 05:03:34;;;;;;;1.90;0.80;;;2.30;99.90;;;;;;4882214;29;20055;-72
2022/04/10 05:06:00;;;;;;;9.40;0.90;;;2.30;99.90;;;;;;4899643;29;20049;-73
2022/04/10 05:08:26;;;;;;;4.80;1.08;;;2.30;99.90;;;;;;4899704;29;20104;-72
2022/04/10 05:10:51;;;;;;;2.65;0.90;;;2.20;99.90;;;;;;4882802;29;20080;-73
2022/04/10 05:13:17;;;;;;;3.45;0.70;;;2.20;99.90;;;;;;4882864;29;20108;-72
2022/04/10 05:15:43;;;;;;;1.27;0.60;;;2.10;99.90;;;;;;4882386;29;20055;-71
2022/04/10 05:18:09;;;;;;;4.20;0.85;;;2.10;99.90;;;;;;4866320;29;20463;-73
2022/04/10 05:20:34;;;;;;;4.93;1.08;;;2.80;99.90;;;;;;4882078;29;20048;-70
2022/04/10 05:23:00;;;;;;;4.38;0.75;;;2.00;99.90;;;;;;4899320;29;20052;-71
2022/04/10 05:25:26;;;;;;;6.53;0.85;;;1.90;99.90;;;;;;4882277;29;20048;-72
2022/04/10 05:27:51;;;;;;;4.90;1.30;;;1.90;99.90;;;;;;4899133;29;20053;-72
2022/04/10 05:30:17;;;;;;;2.28;0.65;;;1.90;99.90;;;;;;4882462;29;20068;-71
2022/04/10 05:32:43;;;;;;;1.75;0.73;;;1.90;99.90;;;;;;4881858;29;20070;-71
2022/04/10 05:35:10;;;;;;;7.88;0.82;;;1.90;99.90;;;;;;4881698;29;20186;-73
2022/04/10 05:37:35;;;;;;;4.82;1.05;;;1.90;99.90;;;;;;4881756;29;20138;-71
2022/04/10 05:40:02;;;;;;;10.40;2.17;;;1.90;99.90;;;;;;4898947;29;20123;-73
2022/04/10 05:42:28;;;;;;;6.75;1.35;;;1.90;99.90;;;;;;4898867;29;20051;-73
2022/04/10 05:45:03;;;;;;;2.05;0.77;;;2.00;99.90;;;;;;4898887;29;20048;-73
2022/04/10 05:47:28;;;;;;;3.78;0.98;;;2.00;99.90;;;;;;4898987;29;20052;-75
2022/04/10 05:49:54;;;;;;;4.53;0.70;;;2.10;99.90;;;;;;4898923;29;20037;-72
2022/04/10 05:52:20;;;;;;;2.47;0.80;;;2.20;99.90;;;;;;4898357;29;20067;-72
2022/04/10 05:54:46;;;;;;;1.13;0.55;;;2.20;99.90;;;;;;4898829;29;20127;-73
2022/04/10 05:57:11;;;;;;;2.40;0.80;;;2.30;99.90;;;;;;4882137;29;20466;-73
2022/04/10 05:59:37;;;;;;;3.58;0.75;;;2.30;99.90;;;;;;4898855;29;20040;-74
2022/04/10 06:02:03;;;;;;;5.55;1.05;;;2.30;99.90;;;;;;4881879;29;20048;-72
2022/04/10 06:04:28;;;;;;;2.70;0.60;;;2.40;99.90;;;;;;4881665;29;20057;-73
2022/04/10 06:06:54;;;;;;;4.13;0.93;;;2.50;99.90;;;;;;4881967;29;20053;-70
2022/04/10 06:09:19;;;;;;;1.98;0.65;;;2.60;99.90;;;;;;4881071;29;20096;-75
2022/04/10 06:11:45;;;;;;;3.75;0.90;;;2.70;99.90;;;;;;4898148;29;20398;-72
2022/04/10 06:14:11;;;;;;;1.48;0.47;;;2.80;99.90;;;;;;4898444;29;20052;-72
2022/04/10 06:16:39;;;;;;;5.95;1.10;;;3.00;99.90;;;;;;4881819;29;20100;-73
2022/04/10 06:19:05;;;;;;;4.47;0.90;;;3.00;99.90;;;;;;4881745;29;20049;-73
2022/04/10 06:21:31;;;;;;;1.77;0.55;;;3.20;99.90;;;;;;4898348;29;20045;-73
2022/04/10 06:23:57;;;;;;;2.78;0.70;;;3.30;99.90;;;;;;4897639;29;20059;-73
2022/04/10 06:26:23;;;;;;;2.88;1.10;;;3.40;99.90;;;;;;4897846;29;20065;-74
2022/04/10 06:28:49;;;;;;;6.07;1.10;;;3.60;99.90;;;;;;4897958;29;20097;-74
2022/04/10 06:31:14;;;;;;;3.17;1.02;;;3.70;99.90;;;;;;4897664;29;20449;-76
2022/04/10 06:33:40;;;;;;;2.22;0.80;;;3.80;99.90;;;;;;4898116;29;20510;-73
2022/04/10 06:36:06;;;;;;;5.78;0.80;;;3.80;99.90;;;;;;4898130;29;20123;-72
2022/04/10 06:38:31;;;;;;;3.65;1.17;;;4.30;99.90;;;;;;4898164;29;20071;-73
2022/04/10 06:40:57;;;;;;;1.95;0.80;;;5.20;99.90;;;;;;4897412;29;20168;-73
2022/04/10 06:43:23;;;;;;;3.05;0.80;;;5.10;99.90;;;;;;4897940;29;20052;-75
2022/04/10 06:45:48;;;;;;;3.05;1.25;;;5.30;99.90;;;;;;4898167;29;20056;-73
2022/04/10 06:48:14;;;;;;;4.00;1.27;;;5.20;99.90;;;;;;4898088;29;20053;-72
2022/04/10 06:50:40;;;;;;;4.93;1.02;;;3.90;99.90;;;;;;4897153;29;20382;-78
2022/04/10 06:53:06;;;;;;;1.80;0.68;;;4.00;99.90;;;;;;4896986;29;20509;-78
2022/04/10 06:55:32;;;;;;;5.07;1.13;;;4.00;99.90;;;;;;4896379;29;20036;-73
2022/04/10 06:57:57;;;;;;;4.95;0.98;;;4.10;99.90;;;;;;4896683;29;20145;-72
2022/04/10 07:00:23;;;;;;;4.43;1.15;;;4.20;99.90;;;;;;4880408;29;20083;-73
2022/04/10 07:02:49;;;;;;;6.07;1.10;;;4.20;99.90;;;;;;4897308;29;20408;-73
2022/04/10 07:05:15;;;;;;;6.30;1.10;;;4.20;99.90;;;;;;4896708;29;20081;-72
2022/04/10 07:07:40;;;;;;;5.57;1.20;;;4.10;99.90;;;;;;4896843;29;20131;-72
2022/04/10 07:10:06;;;;;;;6.50;0.73;;;3.90;99.90;;;;;;4896861;29;20059;-71
2022/04/10 07:12:32;;;;;;;4.25;0.98;;;3.80;99.90;;;;;;4896155;29;20472;-71
2022/04/10 07:15:02;;;;;;;1.95;0.80;;;3.70;99.90;;;;;;4898335;29;20819;-71
2022/04/10 07:17:29;;;;;;;3.15;0.80;;;3.60;99.90;;;;;;4896450;29;20064;-72
2022/04/10 07:19:55;;;;;;;6.65;1.02;;;3.50;99.90;;;;;;4879543;29;20044;-70
2022/04/10 07:25:06;;;;;;;4.60;0.80;;;3.60;99.90;;;;;;4897428;29;20045;-70
2022/04/10 07:27:33;;;;;;;5.28;0.77;;;3.60;99.90;;;;;;4879458;29;20127;-73
2022/04/10 07:29:58;;;;;;;4.03;1.13;;;3.80;99.90;;;;;;4896557;29;20516;-72
2022/04/10 07:32:24;;;;;;;5.28;1.00;;;3.90;99.90;;;;;;4879986;29;20063;-74
2022/04/10 07:34:49;;;;;;;6.50;1.20;;;4.10;99.90;;;;;;4876944;29;20059;-73
2022/04/10 07:37:16;;;;;;;4.60;1.50;;;4.10;99.90;;;;;;4896587;29;20405;-80
2022/04/10 07:39:42;;;;;;;4.60;1.10;;;4.30;99.90;;;;;;4896413;29;20036;-81
2022/04/10 07:42:10;;;;;;;6.82;1.65;;;4.40;99.90;;;;;;4898948;29;20044;-74
2022/04/10 07:44:36;;;;;;;3.38;1.13;;;4.50;99.90;;;;;;4899663;29;20054;-73
2022/04/10 07:49:47;;;;;;;3.15;1.17;;;4.80;99.90;;;;;;4900029;29;20052;-73
2022/04/10 07:52:13;;;;;;;4.18;0.93;;;5.00;99.90;;;;;;4900317;29;20052;-80
2022/04/10 07:54:39;;;;;;;5.63;1.25;;;5.20;99.90;;;;;;4900155;29;20045;-72
2022/04/10 07:57:05;;;;;;;4.70;1.10;;;5.40;99.90;;;;;;4883041;29;20108;-75
2022/04/10 07:59:31;;;;;;;6.40;1.27;;;5.40;99.90;;;;;;4899039;29;20060;-73
2022/04/10 08:01:57;;;;;;;8.68;1.27;;;5.30;99.90;;;;;;4883032;29;20045;-72
2022/04/10 08:04:23;;;;;;;7.88;1.23;;;5.30;99.90;;;;;;4899798;29;20397;-69
2022/04/10 08:06:48;;;;;;;3.72;0.93;;;5.40;99.90;;;;;;4900813;29;20045;-72
2022/04/10 08:09:14;;;;;;;4.38;1.20;;;5.50;99.90;;;;;;4900215;29;20524;-76
2022/04/10 08:11:40;;;;;;;4.78;1.23;;;5.60;99.90;;;;;;4899814;29;20043;-78
2022/04/10 08:14:06;;;;;;;3.17;0.85;;;5.70;99.90;;;;;;4899607;29;20044;-72
2022/04/10 08:16:32;;;;;;;3.92;1.00;;;5.70;99.90;;;;;;4896795;29;20454;-73
2022/04/10 08:18:58;;;;;;;5.38;1.00;;;5.80;99.90;;;;;;4899049;29;20048;-71
2022/04/10 08:21:23;;;;;;;2.55;0.85;;;5.90;99.90;;;;;;4899388;29;20032;-73
2022/04/10 08:23:49;;;;;;;2.47;0.80;;;6.20;99.90;;;;;;4899417;29;20054;-67
2022/04/10 08:26:15;;;;;;;3.03;1.00;;;6.30;99.90;;;;;;4899174;29;20052;-70
2022/04/10 08:28:40;;;;;;;2.58;0.88;;;6.30;99.90;;;;;;4899700;29;20048;-70
2022/04/10 08:31:06;;;;;;;4.65;1.00;;;6.40;99.90;;;;;;4881988;29;20060;-69
2022/04/10 08:33:31;;;;;;;6.60;0.85;;;6.50;99.90;;;;;;4898137;29;20401;-71
2022/04/10 08:35:57;;;;;;;3.40;1.00;;;6.60;99.90;;;;;;4899359;29;20048;-69
2022/04/10 08:38:23;;;;;;;7.40;1.15;;;6.70;99.90;;;;;;4899736;29;20052;-70
2022/04/10 08:40:53;;;;;;;6.65;1.13;;;6.90;99.90;;;;;;4883243;29;20045;-76
2022/04/10 08:43:20;;;;;;;3.20;0.95;;;6.90;99.90;;;;;;4900279;29;20053;-72
2022/04/10 08:45:46;;;;;;;11.00;1.58;;;7.30;99.90;;;;;;4900001;29;20134;-72
2022/04/10 08:48:13;;;;;;;7.57;1.27;;;6.90;99.90;;;;;;4880699;29;20083;-78
2022/04/10 08:50:43;;;;;;;4.93;1.20;;;6.80;99.90;;;;;;4878573;29;20100;-77
2022/04/10 08:53:09;;;;;;;5.68;1.52;;;6.80;99.90;;;;;;4877589;29;20143;-73
2022/04/10 08:55:35;;;;;;;7.57;1.10;;;6.80;99.90;;;;;;4898659;29;20044;-72
2022/04/10 08:58:05;;;;;;;7.28;1.48;;;6.60;99.90;;;;;;4898784;29;20127;-72
2022/04/10 09:00:31;;;;;;;4.15;0.80;;;6.50;99.90;;;;;;4896996;29;20060;-71
2022/04/10 09:02:57;;;;;;;4.47;0.82;;;6.40;99.90;;;;;;4898557;29;20048;-72
2022/04/10 09:05:24;;;;;;;7.78;1.27;;;6.60;99.90;;;;;;4899463;29;20044;-72
2022/04/10 09:08:10;;;;;;;3.67;0.80;;;6.90;99.90;;;;;;4899711;29;20044;-73
2022/04/10 09:11:07;;;;;;;8.52;1.10;;;7.30;99.90;;;;;;4897244;29;20505;-73
2022/04/10 09:13:38;;;;;;;2.85;1.00;;;7.40;99.90;;;;;;4857415;29;20387;-71
2022/04/10 09:16:10;;;;;;;3.35;1.55;;;7.40;99.90;;;;;;4842513;29;20069;-71
2022/04/10 09:18:54;;;;;;;5.57;1.10;;;7.20;99.90;;;;;;4858349;29;20102;-74
2022/04/10 09:21:44;;;;;;;10.25;1.08;;;7.20;99.90;;;;;;4857649;29;20053;-75
2022/04/10 09:24:15;;;;;;;6.22;1.08;;;7.20;99.90;;;;;;4858253;29;20532;-73
2022/04/10 09:26:47;;;;;;;6.05;1.23;;;7.80;99.90;;;;;;4857236;29;20057;-72
2022/04/10 09:29:14;;;;;;;;;;;7.90;99.90;;;;;;4857862;29;20049;-72
2022/04/10 09:31:40;;;;;;;5.97;1.40;;;7.70;99.90;;;;;;4857014;29;19927;-74
2022/04/10 09:34:07;;;;;;;5.50;1.40;;;7.60;99.90;;;;;;4858465;29;20041;-77
2022/04/10 09:36:41;;;;;;;7.95;0.90;;;7.50;99.90;;;;;;4858864;29;20058;-74
2022/04/10 09:39:36;;;;;;;4.55;1.15;;;7.60;99.90;;;;;;4844443;29;20177;-74
2022/04/10 09:42:04;;;;;;;7.38;1.15;;;7.90;99.90;;;;;;4822914;29;20065;-73
2022/04/10 09:44:35;;;;;;;12.27;1.15;;;7.90;99.90;;;;;;4822793;29;20066;-74
2022/04/10 09:47:05;;;;;;;6.40;1.40;;;7.80;99.90;;;;;;4823256;29;20077;-75
2022/04/10 09:49:32;;;;;;;5.07;1.00;;;7.90;99.90;;;;;;4829055;29;20459;-73
2022/04/10 09:52:00;;;;;;;5.78;1.50;;;8.10;99.90;;;;;;4824298;29;20050;-72
2022/04/10 09:54:31;;;;;;;6.65;1.45;;;8.30;99.90;;;;;;4838371;29;20162;-74
2022/04/10 09:57:00;;;;;;;1.48;0.60;;;8.50;99.90;;;;;;4839919;29;20502;-73
2022/04/10 09:59:27;;;;;;;5.95;0.88;;;8.40;99.90;;;;;;4824539;29;20061;-72
2022/04/10 10:01:55;;;;;;;5.15;0.90;;;8.40;99.90;;;;;;4839887;29;20045;-72
2022/04/10 10:04:22;;;;;;;9.48;0.95;;;8.50;99.90;;;;;;4837976;29;20053;-75
2022/04/10 10:06:49;;;;;;;8.52;0.90;;;8.50;99.90;;;;;;4840536;29;20057;-70
2022/04/10 10:09:15;;;;;;;6.88;0.80;;;9.30;99.90;;;;;;4838179;29;20042;-74
2022/04/10 10:11:42;;;;;;;4.30;0.77;;;8.80;99.90;;;;;;4838671;29;20194;-73
2022/04/10 10:14:09;;;;;;;3.42;0.63;;;9.10;99.90;;;;;;4839383;29;20158;-73
2022/04/10 10:16:35;;;;;;;3.40;0.80;;;9.30;99.90;;;;;;4837802;29;20061;-74
2022/04/10 10:19:01;;;;;;;3.35;0.63;;;9.40;99.90;;;;;;4870099;29;20064;-76
2022/04/10 10:21:27;;;;;;;2.38;0.80;;;9.70;99.90;;;;;;4897309;29;20076;-73
2022/04/10 10:23:54;;;;;;;8.18;0.80;;;9.70;99.90;;;;;;4879884;29;20044;-72
2022/04/10 10:26:54;;;;;;;2.38;0.88;;;9.90;99.90;;;;;;4898395;29;20064;-75
2022/04/10 10:29:48;;;;;;;5.72;1.10;;;10.00;99.90;;;;;;4896755;29;20053;-73
2022/04/10 10:32:44;;;;;;;3.10;0.77;;;10.10;99.90;;;;;;4896711;29;20060;-74
2022/04/10 10:35:30;;;;;;;3.42;0.80;;;9.90;99.90;;;;;;4896288;29;20428;-75
2022/04/10 10:37:56;;;;;;;3.55;1.13;;;9.60;99.90;;;;;;4879110;29;20095;-73
2022/04/10 10:40:22;;;;;;;5.10;0.70;;;9.20;99.90;;;;;;4896551;29;20084;-76
2022/04/10 10:42:51;;;;;;;3.70;0.75;;;8.70;99.90;;;;;;4879564;29;20059;-75
2022/04/10 10:45:43;;;;;;;5.22;0.88;;;8.30;99.90;;;;;;4896969;29;20512;-74
2022/04/10 10:48:31;;;;;;;2.03;0.80;;;8.10;99.90;;;;;;4897120;29;20048;-74
2022/04/10 10:51:02;;;;;;;5.45;0.82;;;8.30;99.90;;;;;;4895813;29;21394;-74
2022/04/10 10:53:43;;;;;;;5.13;0.93;;;9.00;99.90;;;;;;4879393;29;20602;-72
2022/04/10 10:56:20;;;;;;;4.63;0.93;;;9.20;99.90;;;;;;4877595;29;20135;-75
2022/04/10 10:58:49;;;;;;;3.08;1.00;;;9.40;99.90;;;;;;4898024;29;20048;-76
2022/04/10 11:01:19;;;;;;;3.22;0.80;;;9.60;99.90;;;;;;4894199;29;20041;-76
2022/04/10 11:04:04;;;;;;;4.30;0.90;;;9.70;99.90;;;;;;4880340;29;20088;-75
2022/04/10 11:06:41;;;;;;;1.48;0.60;;;9.50;99.90;;;;;;4897545;29;20052;-75
2022/04/10 11:09:33;;;;;;;4.43;0.77;;;9.40;99.90;;;;;;4897139;29;20063;-75
2022/04/10 11:11:59;;;;;;;3.58;0.60;;;9.80;99.90;;;;;;4875809;29;20063;-74
2022/04/10 11:14:33;;;;;;;4.85;0.88;;;9.40;99.90;;;;;;4879779;29;20052;-72
2022/04/10 11:17:19;;;;;;;5.07;0.88;;;9.80;99.90;;;;;;4895235;29;20048;-75
2022/04/10 11:19:52;;;;;;;1.55;0.50;;;9.60;99.90;;;;;;4898404;29;20048;-72
2022/04/10 11:22:48;;;;;;;3.30;0.82;;;9.50;99.90;;;;;;4904558;29;20401;-74
2022/04/10 11:25:18;;;;;;;1.83;0.60;;;9.40;99.90;;;;;;4888600;29;20041;-76
2022/04/10 11:27:51;;;;;;;2.22;0.75;;;9.30;99.90;;;;;;4903190;29;20052;-74
2022/04/10 11:30:29;;;;;;;5.40;0.70;;;9.30;99.90;;;;;;4904868;29;20048;-77
2022/04/10 11:33:03;;;;;;;2.85;0.80;;;9.70;99.90;;;;;;4897118;29;20131;-73
2022/04/10 11:35:40;;;;;;;4.80;1.30;;;9.90;99.90;;;;;;4902069;29;20051;-76
2022/04/10 11:38:20;;;;;;;1.65;0.68;;;10.10;99.90;;;;;;4907735;29;20052;-73
2022/04/10 11:40:50;;;;;;;1.92;0.75;;;9.90;99.90;;;;;;4899359;29;20045;-75
2022/04/10 11:43:29;;;;;;;3.00;0.73;;;9.80;99.90;;;;;;4896509;29;20407;-75
2022/04/10 11:45:55;;;;;;;2.05;0.70;;;10.00;99.90;;;;;;4899391;29;20055;-75
2022/04/10 11:48:24;;;;;;;4.82;1.35;;;10.40;99.90;;;;;;4896793;29;20044;-72
2022/04/10 11:50:50;;;;;;;1.10;0.60;;;10.00;99.90;;;;;;4896801;29;20112;-74
2022/04/10 11:53:16;;;;;;;7.43;0.88;;;9.90;98.10;;;;;;4878926;29;20060;-73
2022/04/10 11:55:44;;;;;;;5.47;0.90;;;9.60;98.40;;;;;;4901206;29;20111;-74
2022/04/10 11:58:15;;;;;;;2.15;0.70;;;9.70;99.50;;;;;;4907368;29;20055;-73
2022/04/10 12:01:04;;;;;;;3.72;0.77;;;9.70;99.20;;;;;;4865802;29;20060;-74
2022/04/10 12:03:31;;;;;;;6.10;0.82;;;9.70;99.00;;;;;;4876528;29;20061;-75
2022/04/10 12:05:57;;;;;;;3.47;0.77;;;9.40;98.70;;;;;;4897670;29;20048;-75
2022/04/10 12:08:24;;;;;;;6.28;1.30;;;9.30;98.60;;;;;;4900248;29;20132;-74
2022/04/10 12:10:58;;;;;;;2.20;0.52;;;9.50;99.50;;;;;;4889842;29;20052;-72
2022/04/10 12:13:37;;;;;;;5.55;0.90;;;9.80;97.60;;;;;;4892485;29;20186;-77
2022/04/10 12:16:19;;;;;;;2.05;0.50;;;10.20;99.00;;;;;;4901349;29;20473;-75
2022/04/10 12:18:49;;;;;;;4.55;0.82;;;10.70;96.10;;;;;;4894386;29;20041;-77
2022/04/10 12:21:16;;;;;;;4.47;1.02;;;10.80;96.10;;;;;;4896563;29;20135;-75
2022/04/10 12:23:42;;;;;;;4.07;0.80;;;10.80;97.30;;;;;;4896706;29;20092;-77
2022/04/10 12:26:08;;;;;;;2.70;0.65;;;11.10;97.20;;;;;;4896841;29;20152;-76
2022/04/10 12:28:35;;;;;;;5.18;1.20;;;10.70;96.60;;;;;;4881722;29;20056;-75
2022/04/10 12:31:02;;;;;;;2.88;0.75;;;10.70;95.90;;;;;;4899897;29;20059;-76
2022/04/10 12:33:29;;;;;;;2.08;0.63;;;10.70;94.90;;;;;;4898165;29;20063;-76
2022/04/10 12:35:55;;;;;;;2.90;0.93;;;10.70;96.20;;;;;;4900241;29;20519;-76
2022/04/10 12:38:26;;;;;;;2.92;0.60;;;10.60;95.40;;;;;;4867521;29;20056;-76
2022/04/10 12:41:05;;;;;;;2.90;0.70;;;10.60;97.40;;;;;;4900178;29;20045;-77
2022/04/10 12:43:31;;;;;;;4.07;0.50;;;10.50;96.30;;;;;;4900282;29;20091;-74
2022/04/10 12:46:13;;;;;;;2.17;0.60;;;10.50;94.20;;;;;;4883099;29;20048;-76
2022/04/10 12:48:39;;;;;;;4.85;0.63;;;10.40;94.90;;;;;;4899306;29;20036;-75
2022/04/10 12:51:12;;;;;;;2.28;0.57;;;10.70;95.10;;;;;;4900046;29;20060;-76
2022/04/10 12:53:38;;;;;;;1.95;0.73;;;11.00;94.80;;;;;;4900037;29;20513;-76
2022/04/10 12:56:19;;;;;;;2.10;1.02;;;11.20;95.20;;;;;;4899909;29;20105;-77
2022/04/10 12:58:47;;;;;;;6.05;1.45;;;11.20;92.20;;;;;;4883090;29;20056;-77
2022/04/10 13:01:27;;;;;;;5.20;0.95;;;11.40;95.00;;;;;;4900222;29;20417;-77
2022/04/10 13:03:52;;;;;;;3.28;0.60;;;11.50;90.40;;;;;;4899242;29;20045;-76
2022/04/10 13:06:19;;;;;;;2.10;0.75;;;11.50;93.70;;;;;;4899587;29;20041;-76